MU04 weather

Broadwater Airport
Malden, Missouri, United States

Public forecast

Using degrees Fahrenheit for public forecast. Weather courtesy of forecast.io.

Closest aviation weather report (METAR) to Broadwater Airport

Closest report is Poplar Bluff Municipal Airport, 22.4 nm (41.5 km) WNW. Retrieved 2020/08/04 22:53 UTC (33 minutes ago):

KPOF 042253Z AUTO 35009KT 10SM CLR 26/13 A3004 RMK AO2 SLP167 T02560133

Closest aviation forecast (TAF) to Broadwater Airport

Closest forecast is Cape Girardeau Regional Airport, 41.7 nm (77.2 km) NNE. Retrieved 2020/08/04 18:34 UTC (5 hours ago):

TAF KCGI 041732Z 0418/0518 36009G16KT P6SM SCT025 BKN035 FM050100 01003KT P6SM SCT250 FM050800 VRB02KT 4SM BR FEW250 FM051200 04006KT P6SM SCT035